sensor_id;sensor_type;location;lat;lon;timestamp;temperature;humidity
76567;DHT22;65428;53.194;6.132;2023-05-16T00:01:56;8.10;99.90
76567;DHT22;65428;53.194;6.132;2023-05-16T00:04:22;8.10;99.90
76567;DHT22;65428;53.194;6.132;2023-05-16T00:06:48;8.00;99.90
76567;DHT22;65428;53.194;6.132;2023-05-16T00:09:13;8.10;99.90
76567;DHT22;65428;53.194;6.132;2023-05-16T00:11:39;8.10;99.90
76567;DHT22;65428;53.194;6.132;2023-05-16T00:14:05;8.40;99.90
76567;DHT22;65428;53.194;6.132;2023-05-16T00:16:30;8.00;99.90
76567;DHT22;65428;53.194;6.132;2023-05-16T00:18:57;8.10;99.90
76567;DHT22;65428;53.194;6.132;2023-05-16T00:21:24;8.00;99.90
76567;DHT22;65428;53.194;6.132;2023-05-16T00:23:49;7.90;99.90
76567;DHT22;65428;53.194;6.132;2023-05-16T00:26:17;7.90;99.90
76567;DHT22;65428;53.194;6.132;2023-05-16T00:28:43;7.90;99.90
76567;DHT22;65428;53.194;6.132;2023-05-16T00:31:09;7.90;99.90
76567;DHT22;65428;53.194;6.132;2023-05-16T00:33:34;8.00;99.90
76567;DHT22;65428;53.194;6.132;2023-05-16T00:36:00;8.00;99.90
76567;DHT22;65428;53.194;6.132;2023-05-16T00:38:25;8.20;99.90
76567;DHT22;65428;53.194;6.132;2023-05-16T00:40:52;8.00;99.90
76567;DHT22;65428;53.194;6.132;2023-05-16T00:43:17;7.90;99.90
76567;DHT22;65428;53.194;6.132;2023-05-16T00:45:43;7.90;99.90
76567;DHT22;65428;53.194;6.132;2023-05-16T00:48:10;7.80;99.90
76567;DHT22;65428;53.194;6.132;2023-05-16T00:50:36;7.80;99.90
76567;DHT22;65428;53.194;6.132;2023-05-16T00:53:02;7.80;99.90
76567;DHT22;65428;53.194;6.132;2023-05-16T00:55:28;7.70;99.90
76567;DHT22;65428;53.194;6.132;2023-05-16T00:57:55;7.90;99.90
76567;DHT22;65428;53.194;6.132;2023-05-16T01:00:22;7.70;99.90
76567;DHT22;65428;53.194;6.132;2023-05-16T01:02:48;7.70;99.90
76567;DHT22;65428;53.194;6.132;2023-05-16T01:05:18;7.80;99.90
76567;DHT22;65428;53.194;6.132;2023-05-16T01:07:44;7.60;99.90
76567;DHT22;65428;53.194;6.132;2023-05-16T01:10:10;7.60;99.90
76567;DHT22;65428;53.194;6.132;2023-05-16T01:13:00;7.60;99.90
76567;DHT22;65428;53.194;6.132;2023-05-16T01:15:38;7.80;99.90
76567;DHT22;65428;53.194;6.132;2023-05-16T01:18:41;7.50;99.90
76567;DHT22;65428;53.194;6.132;2023-05-16T01:21:15;7.50;99.90
76567;DHT22;65428;53.194;6.132;2023-05-16T01:24:02;7.50;99.90
76567;DHT22;65428;53.194;6.132;2023-05-16T01:26:32;7.50;99.90
76567;DHT22;65428;53.194;6.132;2023-05-16T01:28:58;7.50;99.90
76567;DHT22;65428;53.194;6.132;2023-05-16T01:31:25;7.40;99.90
76567;DHT22;65428;53.194;6.132;2023-05-16T01:33:50;7.40;99.90
76567;DHT22;65428;53.194;6.132;2023-05-16T01:41:21;7.30;99.90
76567;DHT22;65428;53.194;6.132;2023-05-16T01:43:51;7.30;99.90
76567;DHT22;65428;53.194;6.132;2023-05-16T01:46:25;7.30;99.90
76567;DHT22;65428;53.194;6.132;2023-05-16T01:49:01;7.70;99.90
76567;DHT22;65428;53.194;6.132;2023-05-16T01:51:31;7.40;99.90
76567;DHT22;65428;53.194;6.132;2023-05-16T01:54:02;7.40;99.90
76567;DHT22;65428;53.194;6.132;2023-05-16T01:56:30;7.40;99.90
76567;DHT22;65428;53.194;6.132;2023-05-16T01:58:57;7.40;99.90
76567;DHT22;65428;53.194;6.132;2023-05-16T02:01:23;7.40;99.90
76567;DHT22;65428;53.194;6.132;2023-05-16T02:03:49;7.40;99.90
76567;DHT22;65428;53.194;6.132;2023-05-16T02:06:15;7.40;99.90
76567;DHT22;65428;53.194;6.132;2023-05-16T02:08:41;7.40;99.90
76567;DHT22;65428;53.194;6.132;2023-05-16T02:11:07;7.40;99.90
76567;DHT22;65428;53.194;6.132;2023-05-16T02:13:32;7.40;99.90
76567;DHT22;65428;53.194;6.132;2023-05-16T02:15:58;7.40;99.90
76567;DHT22;65428;53.194;6.132;2023-05-16T02:18:24;7.40;99.90
76567;DHT22;65428;53.194;6.132;2023-05-16T02:20:51;7.40;99.90
76567;DHT22;65428;53.194;6.132;2023-05-16T02:23:16;7.40;99.90
76567;DHT22;65428;53.194;6.132;2023-05-16T02:25:42;7.60;99.90
76567;DHT22;65428;53.194;6.132;2023-05-16T02:28:07;7.40;99.90
76567;DHT22;65428;53.194;6.132;2023-05-16T02:30:33;7.40;99.90
76567;DHT22;65428;53.194;6.132;2023-05-16T02:32:59;7.50;99.90
76567;DHT22;65428;53.194;6.132;2023-05-16T02:35:24;7.40;99.90
76567;DHT22;65428;53.194;6.132;2023-05-16T02:37:50;7.40;99.90
76567;DHT22;65428;53.194;6.132;2023-05-16T02:40:16;7.30;99.90
76567;DHT22;65428;53.194;6.132;2023-05-16T02:42:41;7.30;99.90
76567;DHT22;65428;53.194;6.132;2023-05-16T02:45:07;7.60;99.90
76567;DHT22;65428;53.194;6.132;2023-05-16T02:47:33;7.20;99.90
76567;DHT22;65428;53.194;6.132;2023-05-16T02:49:59;7.20;99.90
76567;DHT22;65428;53.194;6.132;2023-05-16T02:52:24;7.20;99.90
76567;DHT22;65428;53.194;6.132;2023-05-16T02:54:50;7.20;99.90
76567;DHT22;65428;53.194;6.132;2023-05-16T02:57:16;7.10;99.90
76567;DHT22;65428;53.194;6.132;2023-05-16T02:59:41;7.10;99.90
76567;DHT22;65428;53.194;6.132;2023-05-16T03:02:07;7.10;99.90
76567;DHT22;65428;53.194;6.132;2023-05-16T03:04:33;7.10;99.90
76567;DHT22;65428;53.194;6.132;2023-05-16T03:06:59;7.10;99.90
76567;DHT22;65428;53.194;6.132;2023-05-16T03:09:24;7.40;99.90
76567;DHT22;65428;53.194;6.132;2023-05-16T03:11:50;7.20;99.90
76567;DHT22;65428;53.194;6.132;2023-05-16T03:14:16;7.20;99.90
76567;DHT22;65428;53.194;6.132;2023-05-16T03:16:41;7.10;99.90
76567;DHT22;65428;53.194;6.132;2023-05-16T03:19:09;7.40;99.90
76567;DHT22;65428;53.194;6.132;2023-05-16T03:21:34;7.10;99.90
76567;DHT22;65428;53.194;6.132;2023-05-16T03:24:02;7.10;99.90
76567;DHT22;65428;53.194;6.132;2023-05-16T03:26:28;7.10;99.90
76567;DHT22;65428;53.194;6.132;2023-05-16T03:28:54;7.10;99.90
76567;DHT22;65428;53.194;6.132;2023-05-16T03:31:19;7.00;99.90
76567;DHT22;65428;53.194;6.132;2023-05-16T03:33:45;7.00;99.90
76567;DHT22;65428;53.194;6.132;2023-05-16T03:36:11;6.90;99.90
76567;DHT22;65428;53.194;6.132;2023-05-16T03:38:36;6.90;99.90
76567;DHT22;65428;53.194;6.132;2023-05-16T03:41:02;6.90;99.90
76567;DHT22;65428;53.194;6.132;2023-05-16T03:43:28;6.90;99.90
76567;DHT22;65428;53.194;6.132;2023-05-16T03:45:53;6.90;99.90
76567;DHT22;65428;53.194;6.132;2023-05-16T03:48:20;6.90;99.90
76567;DHT22;65428;53.194;6.132;2023-05-16T03:50:46;6.90;99.90
76567;DHT22;65428;53.194;6.132;2023-05-16T03:53:12;6.90;99.90
76567;DHT22;65428;53.194;6.132;2023-05-16T03:55:38;7.00;99.90
76567;DHT22;65428;53.194;6.132;2023-05-16T03:58:03;6.90;99.90
76567;DHT22;65428;53.194;6.132;2023-05-16T04:00:29;6.90;99.90
76567;DHT22;65428;53.194;6.132;2023-05-16T04:02:55;6.80;99.90
76567;DHT22;65428;53.194;6.132;2023-05-16T04:05:21;6.80;99.90
76567;DHT22;65428;53.194;6.132;2023-05-16T04:07:47;6.90;99.90
76567;DHT22;65428;53.194;6.132;2023-05-16T04:10:13;7.00;99.90
76567;DHT22;65428;53.194;6.132;2023-05-16T04:12:39;7.00;99.90
76567;DHT22;65428;53.194;6.132;2023-05-16T04:15:05;6.80;99.90
76567;DHT22;65428;53.194;6.132;2023-05-16T04:17:32;6.80;99.90
76567;DHT22;65428;53.194;6.132;2023-05-16T04:19:58;6.80;99.90
76567;DHT22;65428;53.194;6.132;2023-05-16T04:22:24;6.80;99.90
76567;DHT22;65428;53.194;6.132;2023-05-16T04:24:50;6.90;99.90
76567;DHT22;65428;53.194;6.132;2023-05-16T04:27:16;6.90;99.90
76567;DHT22;65428;53.194;6.132;2023-05-16T04:29:42;6.90;99.90
76567;DHT22;65428;53.194;6.132;2023-05-16T04:32:07;7.00;99.90
76567;DHT22;65428;53.194;6.132;2023-05-16T04:34:34;7.00;99.90
76567;DHT22;65428;53.194;6.132;2023-05-16T04:37:03;7.10;99.90
76567;DHT22;65428;53.194;6.132;2023-05-16T04:39:30;7.20;99.90
76567;DHT22;65428;53.194;6.132;2023-05-16T04:41:55;7.20;99.90
76567;DHT22;65428;53.194;6.132;2023-05-16T04:44:24;7.40;99.90
76567;DHT22;65428;53.194;6.132;2023-05-16T04:46:50;7.40;99.90
76567;DHT22;65428;53.194;6.132;2023-05-16T04:49:18;7.60;99.90
76567;DHT22;65428;53.194;6.132;2023-05-16T04:51:43;7.60;99.90
76567;DHT22;65428;53.194;6.132;2023-05-16T04:54:09;7.80;99.90
76567;DHT22;65428;53.194;6.132;2023-05-16T04:56:35;7.90;99.90
76567;DHT22;65428;53.194;6.132;2023-05-16T04:59:01;8.10;99.90
76567;DHT22;65428;53.194;6.132;2023-05-16T05:01:28;8.20;99.90
76567;DHT22;65428;53.194;6.132;2023-05-16T05:03:54;8.30;99.90
76567;DHT22;65428;53.194;6.132;2023-05-16T05:06:20;8.40;99.90
76567;DHT22;65428;53.194;6.132;2023-05-16T05:08:46;8.50;99.90
76567;DHT22;65428;53.194;6.132;2023-05-16T05:11:12;8.80;99.90
76567;DHT22;65428;53.194;6.132;2023-05-16T05:13:38;8.70;99.90
76567;DHT22;65428;53.194;6.132;2023-05-16T05:16:03;8.80;99.90
76567;DHT22;65428;53.194;6.132;2023-05-16T05:18:30;8.90;99.90
76567;DHT22;65428;53.194;6.132;2023-05-16T05:20:55;9.00;99.90
76567;DHT22;65428;53.194;6.132;2023-05-16T05:23:22;9.20;99.90
76567;DHT22;65428;53.194;6.132;2023-05-16T05:25:48;9.70;99.90
76567;DHT22;65428;53.194;6.132;2023-05-16T05:28:14;9.50;99.90
76567;DHT22;65428;53.194;6.132;2023-05-16T05:30:39;9.70;99.90
76567;DHT22;65428;53.194;6.132;2023-05-16T05:33:05;9.90;99.90
76567;DHT22;65428;53.194;6.132;2023-05-16T05:35:31;10.00;99.90
76567;DHT22;65428;53.194;6.132;2023-05-16T05:37:56;10.10;99.90
76567;DHT22;65428;53.194;6.132;2023-05-16T05:40:22;10.10;99.90
76567;DHT22;65428;53.194;6.132;2023-05-16T05:42:47;10.00;99.90
76567;DHT22;65428;53.194;6.132;2023-05-16T05:45:14;10.00;99.90
76567;DHT22;65428;53.194;6.132;2023-05-16T05:47:40;9.90;99.90
76567;DHT22;65428;53.194;6.132;2023-05-16T05:50:07;9.90;99.90
76567;DHT22;65428;53.194;6.132;2023-05-16T05:52:33;9.90;99.90
76567;DHT22;65428;53.194;6.132;2023-05-16T05:54:58;9.80;99.90
76567;DHT22;65428;53.194;6.132;2023-05-16T05:57:24;9.70;99.90
76567;DHT22;65428;53.194;6.132;2023-05-16T05:59:50;9.50;99.90
76567;DHT22;65428;53.194;6.132;2023-05-16T06:02:16;9.30;99.90
76567;DHT22;65428;53.194;6.132;2023-05-16T06:04:42;9.20;99.90
76567;DHT22;65428;53.194;6.132;2023-05-16T06:07:07;9.30;99.90
76567;DHT22;65428;53.194;6.132;2023-05-16T06:09:33;9.50;99.90
76567;DHT22;65428;53.194;6.132;2023-05-16T06:11:59;9.70;99.90
76567;DHT22;65428;53.194;6.132;2023-05-16T06:14:24;9.90;99.90
76567;DHT22;65428;53.194;6.132;2023-05-16T06:16:50;10.10;99.90
76567;DHT22;65428;53.194;6.132;2023-05-16T06:19:16;10.30;99.90
76567;DHT22;65428;53.194;6.132;2023-05-16T06:21:43;10.60;99.90
76567;DHT22;65428;53.194;6.132;2023-05-16T06:24:09;10.70;99.90
76567;DHT22;65428;53.194;6.132;2023-05-16T06:26:36;10.90;99.90
76567;DHT22;65428;53.194;6.132;2023-05-16T06:29:02;11.00;99.90
76567;DHT22;65428;53.194;6.132;2023-05-16T06:31:27;11.10;99.90
76567;DHT22;65428;53.194;6.132;2023-05-16T06:33:53;11.10;99.90
76567;DHT22;65428;53.194;6.132;2023-05-16T06:36:18;11.30;99.90
76567;DHT22;65428;53.194;6.132;2023-05-16T06:38:44;11.30;99.90
76567;DHT22;65428;53.194;6.132;2023-05-16T06:41:10;11.70;99.90
76567;DHT22;65428;53.194;6.132;2023-05-16T06:43:36;11.40;99.90
76567;DHT22;65428;53.194;6.132;2023-05-16T06:46:01;11.60;99.90
76567;DHT22;65428;53.194;6.132;2023-05-16T06:48:28;11.50;99.90
76567;DHT22;65428;53.194;6.132;2023-05-16T06:50:54;11.70;99.90
76567;DHT22;65428;53.194;6.132;2023-05-16T06:53:19;11.80;99.90
76567;DHT22;65428;53.194;6.132;2023-05-16T06:55:46;11.80;99.90
76567;DHT22;65428;53.194;6.132;2023-05-16T06:58:12;11.80;99.90
76567;DHT22;65428;53.194;6.132;2023-05-16T07:00:37;11.70;99.90
76567;DHT22;65428;53.194;6.132;2023-05-16T07:03:03;11.60;99.90
76567;DHT22;65428;53.194;6.132;2023-05-16T07:05:29;11.50;99.90
76567;DHT22;65428;53.194;6.132;2023-05-16T07:07:55;11.30;99.90
76567;DHT22;65428;53.194;6.132;2023-05-16T07:10:21;11.00;99.90
76567;DHT22;65428;53.194;6.132;2023-05-16T07:12:46;11.10;99.90
76567;DHT22;65428;53.194;6.132;2023-05-16T07:15:13;11.20;99.90
76567;DHT22;65428;53.194;6.132;2023-05-16T07:17:38;12.00;99.90
76567;DHT22;65428;53.194;6.132;2023-05-16T07:20:05;12.20;99.90
76567;DHT22;65428;53.194;6.132;2023-05-16T07:22:31;12.00;99.90
76567;DHT22;65428;53.194;6.132;2023-05-16T07:24:58;11.90;99.90
76567;DHT22;65428;53.194;6.132;2023-05-16T07:27:26;11.30;99.90
76567;DHT22;65428;53.194;6.132;2023-05-16T07:29:52;11.20;99.90
76567;DHT22;65428;53.194;6.132;2023-05-16T07:32:18;11.50;99.90
76567;DHT22;65428;53.194;6.132;2023-05-16T07:34:43;11.80;99.90
76567;DHT22;65428;53.194;6.132;2023-05-16T07:37:09;12.10;99.90
76567;DHT22;65428;53.194;6.132;2023-05-16T07:39:40;12.10;99.90
76567;DHT22;65428;53.194;6.132;2023-05-16T07:42:07;12.00;99.90
76567;DHT22;65428;53.194;6.132;2023-05-16T07:44:33;11.80;99.90
76567;DHT22;65428;53.194;6.132;2023-05-16T07:46:59;11.70;99.90
76567;DHT22;65428;53.194;6.132;2023-05-16T07:49:24;11.60;99.90
76567;DHT22;65428;53.194;6.132;2023-05-16T07:51:50;11.70;99.90
76567;DHT22;65428;53.194;6.132;2023-05-16T07:54:16;11.90;99.90
76567;DHT22;65428;53.194;6.132;2023-05-16T07:56:42;12.10;99.90
76567;DHT22;65428;53.194;6.132;2023-05-16T07:59:07;12.30;99.90
76567;DHT22;65428;53.194;6.132;2023-05-16T08:01:34;12.60;99.90
76567;DHT22;65428;53.194;6.132;2023-05-16T08:03:59;12.80;99.90
76567;DHT22;65428;53.194;6.132;2023-05-16T08:06:25;13.20;99.90
76567;DHT22;65428;53.194;6.132;2023-05-16T08:08:50;13.20;99.90
76567;DHT22;65428;53.194;6.132;2023-05-16T08:11:17;13.00;99.90
76567;DHT22;65428;53.194;6.132;2023-05-16T08:13:43;12.70;99.90
76567;DHT22;65428;53.194;6.132;2023-05-16T08:16:09;12.50;99.90
76567;DHT22;65428;53.194;6.132;2023-05-16T08:18:36;12.40;99.90
76567;DHT22;65428;53.194;6.132;2023-05-16T08:21:01;12.30;99.90
76567;DHT22;65428;53.194;6.132;2023-05-16T08:23:27;12.10;99.90
76567;DHT22;65428;53.194;6.132;2023-05-16T08:25:53;11.90;99.90
76567;DHT22;65428;53.194;6.132;2023-05-16T08:28:19;12.10;99.90
76567;DHT22;65428;53.194;6.132;2023-05-16T08:30:44;12.60;99.90
76567;DHT22;65428;53.194;6.132;2023-05-16T08:33:10;13.00;99.90
76567;DHT22;65428;53.194;6.132;2023-05-16T08:35:36;13.00;99.90
76567;DHT22;65428;53.194;6.132;2023-05-16T08:38:01;13.40;99.90
76567;DHT22;65428;53.194;6.132;2023-05-16T08:40:28;13.80;99.90
76567;DHT22;65428;53.194;6.132;2023-05-16T08:42:53;14.30;99.00
76567;DHT22;65428;53.194;6.132;2023-05-16T08:45:21;14.00;97.70
76567;DHT22;65428;53.194;6.132;2023-05-16T08:47:49;13.90;91.60
76567;DHT22;65428;53.194;6.132;2023-05-16T08:50:15;13.80;95.30
76567;DHT22;65428;53.194;6.132;2023-05-16T08:52:44;13.70;98.20
76567;DHT22;65428;53.194;6.132;2023-05-16T08:55:12;13.50;94.40
76567;DHT22;65428;53.194;6.132;2023-05-16T08:57:39;13.30;92.30
76567;DHT22;65428;53.194;6.132;2023-05-16T09:00:07;13.30;97.60
76567;DHT22;65428;53.194;6.132;2023-05-16T09:02:40;12.90;99.90
76567;DHT22;65428;53.194;6.132;2023-05-16T09:05:08;12.70;99.90
76567;DHT22;65428;53.194;6.132;2023-05-16T09:07:35;12.60;99.90
76567;DHT22;65428;53.194;6.132;2023-05-16T09:10:01;12.40;99.90
76567;DHT22;65428;53.194;6.132;2023-05-16T09:12:27;12.30;99.90
76567;DHT22;65428;53.194;6.132;2023-05-16T09:14:52;12.50;99.90
76567;DHT22;65428;53.194;6.132;2023-05-16T09:17:18;13.00;99.40
76567;DHT22;65428;53.194;6.132;2023-05-16T09:19:44;13.40;99.10
76567;DHT22;65428;53.194;6.132;2023-05-16T09:22:12;13.90;94.60
76567;DHT22;65428;53.194;6.132;2023-05-16T09:24:47;14.10;98.20
76567;DHT22;65428;53.194;6.132;2023-05-16T09:27:14;13.80;90.90
76567;DHT22;65428;53.194;6.132;2023-05-16T09:29:40;13.70;94.10
76567;DHT22;65428;53.194;6.132;2023-05-16T09:32:12;13.90;92.60
76567;DHT22;65428;53.194;6.132;2023-05-16T09:34:43;14.40;94.00
76567;DHT22;65428;53.194;6.132;2023-05-16T09:37:10;14.20;84.80
76567;DHT22;65428;53.194;6.132;2023-05-16T09:39:38;13.90;92.50
76567;DHT22;65428;53.194;6.132;2023-05-16T09:42:03;13.70;91.30
76567;DHT22;65428;53.194;6.132;2023-05-16T09:44:30;13.90;91.30
76567;DHT22;65428;53.194;6.132;2023-05-16T09:46:56;14.00;86.20
76567;DHT22;65428;53.194;6.132;2023-05-16T09:49:22;13.90;79.60
76567;DHT22;65428;53.194;6.132;2023-05-16T09:51:49;13.80;80.70
76567;DHT22;65428;53.194;6.132;2023-05-16T09:54:14;13.90;90.70
76567;DHT22;65428;53.194;6.132;2023-05-16T09:56:50;14.20;88.10
76567;DHT22;65428;53.194;6.132;2023-05-16T09:59:16;14.60;75.80
76567;DHT22;65428;53.194;6.132;2023-05-16T10:01:41;15.00;89.40
76567;DHT22;65428;53.194;6.132;2023-05-16T10:04:07;15.10;68.20
76567;DHT22;65428;53.194;6.132;2023-05-16T10:06:39;15.40;87.10
76567;DHT22;65428;53.194;6.132;2023-05-16T10:09:11;15.80;80.60
76567;DHT22;65428;53.194;6.132;2023-05-16T10:11:41;16.00;68.60
76567;DHT22;65428;53.194;6.132;2023-05-16T10:14:11;16.00;67.20
76567;DHT22;65428;53.194;6.132;2023-05-16T10:16:42;15.30;66.70
76567;DHT22;65428;53.194;6.132;2023-05-16T10:19:08;14.90;72.70
76567;DHT22;65428;53.194;6.132;2023-05-16T10:21:34;14.50;74.00
76567;DHT22;65428;53.194;6.132;2023-05-16T10:24:03;14.20;86.50
76567;DHT22;65428;53.194;6.132;2023-05-16T10:26:31;14.10;77.10
76567;DHT22;65428;53.194;6.132;2023-05-16T10:28:57;14.30;75.30
76567;DHT22;65428;53.194;6.132;2023-05-16T10:31:23;14.40;79.40
76567;DHT22;65428;53.194;6.132;2023-05-16T10:33:50;14.60;71.30
76567;DHT22;65428;53.194;6.132;2023-05-16T10:36:16;14.70;82.60
76567;DHT22;65428;53.194;6.132;2023-05-16T10:38:44;14.70;72.40
76567;DHT22;65428;53.194;6.132;2023-05-16T10:41:11;14.50;74.50
76567;DHT22;65428;53.194;6.132;2023-05-16T10:43:36;14.40;86.90
76567;DHT22;65428;53.194;6.132;2023-05-16T10:46:06;14.30;72.50
76567;DHT22;65428;53.194;6.132;2023-05-16T10:48:40;14.40;90.40
76567;DHT22;65428;53.194;6.132;2023-05-16T10:53:50;14.50;81.10
76567;DHT22;65428;53.194;6.132;2023-05-16T10:56:25;14.40;94.00
76567;DHT22;65428;53.194;6.132;2023-05-16T10:58:53;14.30;78.40
76567;DHT22;65428;53.194;6.132;2023-05-16T11:01:34;14.20;93.70
76567;DHT22;65428;53.194;6.132;2023-05-16T11:04:08;14.10;92.30
76567;DHT22;65428;53.194;6.132;2023-05-16T11:09:25;13.90;92.80
76567;DHT22;65428;53.194;6.132;2023-05-16T11:17:03;15.00;96.70
76567;DHT22;65428;53.194;6.132;2023-05-16T11:19:34;15.70;75.30
76567;DHT22;65428;53.194;6.132;2023-05-16T11:22:11;15.90;78.10
76567;DHT22;65428;53.194;6.132;2023-05-16T11:27:22;15.20;87.30
76567;DHT22;65428;53.194;6.132;2023-05-16T11:29:48;15.00;91.90
76567;DHT22;65428;53.194;6.132;2023-05-16T11:32:19;14.70;96.70
76567;DHT22;65428;53.194;6.132;2023-05-16T11:34:46;14.80;98.90
76567;DHT22;65428;53.194;6.132;2023-05-16T11:37:13;14.80;97.10
76567;DHT22;65428;53.194;6.132;2023-05-16T11:39:39;14.60;93.20
76567;DHT22;65428;53.194;6.132;2023-05-16T11:42:05;14.80;91.60
76567;DHT22;65428;53.194;6.132;2023-05-16T11:44:31;15.00;95.70
76567;DHT22;65428;53.194;6.132;2023-05-16T11:46:56;15.00;89.00
76567;DHT22;65428;53.194;6.132;2023-05-16T11:49:22;15.20;96.20
76567;DHT22;65428;53.194;6.132;2023-05-16T11:51:48;15.70;85.10
76567;DHT22;65428;53.194;6.132;2023-05-16T11:54:17;15.60;70.80
76567;DHT22;65428;53.194;6.132;2023-05-16T11:56:44;16.00;62.90
76567;DHT22;65428;53.194;6.132;2023-05-16T11:59:10;16.10;62.50
76567;DHT22;65428;53.194;6.132;2023-05-16T12:01:37;15.90;57.70
76567;DHT22;65428;53.194;6.132;2023-05-16T12:04:10;16.00;72.40
76567;DHT22;65428;53.194;6.132;2023-05-16T12:06:37;16.30;64.00
76567;DHT22;65428;53.194;6.132;2023-05-16T12:09:10;16.00;61.00
76567;DHT22;65428;53.194;6.132;2023-05-16T12:11:42;15.50;62.40
76567;DHT22;65428;53.194;6.132;2023-05-16T12:14:12;15.50;61.90
76567;DHT22;65428;53.194;6.132;2023-05-16T12:16:39;15.50;68.80
76567;DHT22;65428;53.194;6.132;2023-05-16T12:19:07;16.30;64.20
76567;DHT22;65428;53.194;6.132;2023-05-16T12:21:34;16.10;61.60
76567;DHT22;65428;53.194;6.132;2023-05-16T12:24:00;16.00;60.40
76567;DHT22;65428;53.194;6.132;2023-05-16T12:26:30;16.10;67.30
76567;DHT22;65428;53.194;6.132;2023-05-16T12:28:58;15.90;56.70
76567;DHT22;65428;53.194;6.132;2023-05-16T12:31:28;15.80;61.60
76567;DHT22;65428;53.194;6.132;2023-05-16T12:33:55;15.30;59.50
76567;DHT22;65428;53.194;6.132;2023-05-16T12:36:21;15.50;62.80
76567;DHT22;65428;53.194;6.132;2023-05-16T12:38:48;15.80;66.90
76567;DHT22;65428;53.194;6.132;2023-05-16T12:41:21;16.20;70.70
76567;DHT22;65428;53.194;6.132;2023-05-16T12:43:50;16.50;68.50
76567;DHT22;65428;53.194;6.132;2023-05-16T12:46:18;16.60;58.50
76567;DHT22;65428;53.194;6.132;2023-05-16T12:48:44;16.50;60.30
76567;DHT22;65428;53.194;6.132;2023-05-16T12:51:16;16.30;56.60
76567;DHT22;65428;53.194;6.132;2023-05-16T12:53:43;16.40;61.90
76567;DHT22;65428;53.194;6.132;2023-05-16T12:56:11;16.50;57.90
76567;DHT22;65428;53.194;6.132;2023-05-16T12:58:38;16.80;57.40
76567;DHT22;65428;53.194;6.132;2023-05-16T13:01:04;16.40;58.10
76567;DHT22;65428;53.194;6.132;2023-05-16T13:03:30;16.20;58.70
76567;DHT22;65428;53.194;6.132;2023-05-16T13:05:57;16.30;61.80
76567;DHT22;65428;53.194;6.132;2023-05-16T13:08:23;16.80;61.30
76567;DHT22;65428;53.194;6.132;2023-05-16T13:10:49;16.50;57.20
76567;DHT22;65428;53.194;6.132;2023-05-16T13:13:15;16.10;58.40
76567;DHT22;65428;53.194;6.132;2023-05-16T13:15:41;15.70;63.40
76567;DHT22;65428;53.194;6.132;2023-05-16T13:18:07;15.60;85.50
76567;DHT22;65428;53.194;6.132;2023-05-16T13:20:32;16.00;87.80
76567;DHT22;65428;53.194;6.132;2023-05-16T13:22:58;15.70;73.30
76567;DHT22;65428;53.194;6.132;2023-05-16T13:25:24;15.50;70.40
76567;DHT22;65428;53.194;6.132;2023-05-16T13:27:49;15.10;74.20
76567;DHT22;65428;53.194;6.132;2023-05-16T13:30:15;14.70;96.70
76567;DHT22;65428;53.194;6.132;2023-05-16T13:32:41;14.70;99.90
76567;DHT22;65428;53.194;6.132;2023-05-16T13:35:07;14.40;99.90
76567;DHT22;65428;53.194;6.132;2023-05-16T13:37:34;14.20;99.30
76567;DHT22;65428;53.194;6.132;2023-05-16T13:40:00;14.10;99.90
76567;DHT22;65428;53.194;6.132;2023-05-16T13:42:26;14.40;99.90
76567;DHT22;65428;53.194;6.132;2023-05-16T13:44:51;15.10;99.90
76567;DHT22;65428;53.194;6.132;2023-05-16T13:47:17;15.40;95.20
76567;DHT22;65428;53.194;6.132;2023-05-16T13:49:43;15.90;93.30
76567;DHT22;65428;53.194;6.132;2023-05-16T13:52:09;16.10;86.80
76567;DHT22;65428;53.194;6.132;2023-05-16T13:54:35;16.00;88.30
76567;DHT22;65428;53.194;6.132;2023-05-16T13:57:00;15.80;83.10
76567;DHT22;65428;53.194;6.132;2023-05-16T13:59:28;16.40;90.40
76567;DHT22;65428;53.194;6.132;2023-05-16T14:01:53;16.80;95.20
76567;DHT22;65428;53.194;6.132;2023-05-16T14:04:19;16.80;66.50
76567;DHT22;65428;53.194;6.132;2023-05-16T14:06:45;16.70;67.40
76567;DHT22;65428;53.194;6.132;2023-05-16T14:09:10;16.40;65.30
76567;DHT22;65428;53.194;6.132;2023-05-16T14:11:37;16.10;68.10
76567;DHT22;65428;53.194;6.132;2023-05-16T14:14:03;15.80;65.00
76567;DHT22;65428;53.194;6.132;2023-05-16T14:16:29;15.30;71.10
76567;DHT22;65428;53.194;6.132;2023-05-16T14:18:55;15.20;81.00
76567;DHT22;65428;53.194;6.132;2023-05-16T14:21:21;15.10;92.40
76567;DHT22;65428;53.194;6.132;2023-05-16T14:23:46;14.80;92.60
76567;DHT22;65428;53.194;6.132;2023-05-16T14:26:13;14.70;93.40
76567;DHT22;65428;53.194;6.132;2023-05-16T14:28:39;15.20;87.30
76567;DHT22;65428;53.194;6.132;2023-05-16T14:31:05;14.90;79.20
76567;DHT22;65428;53.194;6.132;2023-05-16T14:33:31;14.70;70.90
76567;DHT22;65428;53.194;6.132;2023-05-16T14:35:57;14.60;74.30
76567;DHT22;65428;53.194;6.132;2023-05-16T14:38:23;14.80;80.10
76567;DHT22;65428;53.194;6.132;2023-05-16T14:40:49;14.70;71.50
76567;DHT22;65428;53.194;6.132;2023-05-16T14:43:15;14.70;84.20
76567;DHT22;65428;53.194;6.132;2023-05-16T14:45:41;14.80;89.90
76567;DHT22;65428;53.194;6.132;2023-05-16T14:48:07;14.60;71.10
76567;DHT22;65428;53.194;6.132;2023-05-16T14:50:33;14.60;73.70
76567;DHT22;65428;53.194;6.132;2023-05-16T14:52:59;14.50;68.80
76567;DHT22;65428;53.194;6.132;2023-05-16T14:55:25;14.60;72.70
76567;DHT22;65428;53.194;6.132;2023-05-16T14:57:51;14.90;75.50
76567;DHT22;65428;53.194;6.132;2023-05-16T15:00:22;14.60;72.20
76567;DHT22;65428;53.194;6.132;2023-05-16T15:02:48;15.10;74.80
76567;DHT22;65428;53.194;6.132;2023-05-16T15:05:14;14.90;80.00
76567;DHT22;65428;53.194;6.132;2023-05-16T15:07:40;14.60;83.40
76567;DHT22;65428;53.194;6.132;2023-05-16T15:10:06;14.80;80.10
76567;DHT22;65428;53.194;6.132;2023-05-16T15:12:32;14.80;67.20
76567;DHT22;65428;53.194;6.132;2023-05-16T15:14:57;14.70;69.80
76567;DHT22;65428;53.194;6.132;2023-05-16T15:17:23;14.60;69.70
76567;DHT22;65428;53.194;6.132;2023-05-16T15:19:48;14.40;69.60
76567;DHT22;65428;53.194;6.132;2023-05-16T15:22:16;14.30;78.80
76567;DHT22;65428;53.194;6.132;2023-05-16T15:24:42;14.20;90.00
76567;DHT22;65428;53.194;6.132;2023-05-16T15:27:07;14.20;85.60
76567;DHT22;65428;53.194;6.132;2023-05-16T15:29:33;13.90;94.20
76567;DHT22;65428;53.194;6.132;2023-05-16T15:32:03;13.50;99.90
76567;DHT22;65428;53.194;6.132;2023-05-16T15:34:29;13.30;99.90
76567;DHT22;65428;53.194;6.132;2023-05-16T15:36:54;13.10;99.90
76567;DHT22;65428;53.194;6.132;2023-05-16T15:39:20;13.10;99.90
76567;DHT22;65428;53.194;6.132;2023-05-16T15:41:46;13.10;99.90
76567;DHT22;65428;53.194;6.132;2023-05-16T15:44:11;13.20;99.90
76567;DHT22;65428;53.194;6.132;2023-05-16T15:46:37;13.30;99.90
76567;DHT22;65428;53.194;6.132;2023-05-16T15:49:03;13.50;99.90
76567;DHT22;65428;53.194;6.132;2023-05-16T15:51:28;13.40;99.90
76567;DHT22;65428;53.194;6.132;2023-05-16T15:53:54;13.40;99.90